Hartford, Connecticut
Traffic Map
Current Weather Conditions
Hartford, Connecticut
Clear
Clear
42°
Feels Like: 36°
Wind Chill: 36° Ceiling: Unl
Heat Index: 42° Visibility: 10mi
Dew Point: 21° Wind: 12mph
Humidity: 43% Direction: 350° (N)
Pressure: 30.19in Gusts: 0mph
Raw Report DataKHFD 041753Z 35010KT 10SM CLR 06/M06 A3019 RMK AO2 SLP221 T00561061 10056 20006 58013
Traffic Incident Summary
Active as of:
Severity:
Category:
InformationThere was an issue retrieving the traffic information for this location. Please try a different location or try again shortly.
Advertisements
Track Severe Weather on mobile